Paynes Point, Illinois
Current Conditions -  °F | °C
As of 10:15 AM on Saturday 25 Oct 2014 (Local Time) from KRPJ Reporting Station
Clear Clear  
Wind Chill: 17°   Ceiling: Unl
Heat Index: 17°   Visibility: 10mi
Dew Point: 10°   Wind: 9mph
Humidity: 65%   Direction: 330°NNW
Pressure: 29.99"   Gusts: NA
Location:  41.9937°N, 89.1961°W
Report Text: KRPJ 251515Z AUTO 33008KT 10SM CLR 17/10 A2999 RMK AO2 T01680102
Loading
Personal Weather Stations






























Interactive Weather Map
Tropical Storm Tracking
New forecast layout! Learn more

10-Day Weather Forecast

Advertisements
Track Severe Weather on mobile